Unity Village, Missouri
Current Conditions -  °F | °C
As of 9:53 PM on Thursday 27 Nov 2014 (Local Time) from KLXT Reporting Station
Clear Clear  
Wind Chill: 24°   Ceiling: Unl
Heat Index: 31°   Visibility: 10mi
Dew Point: 22°   Wind: 7mph
Humidity: 69%   Direction: 140°SE
Pressure: 30.31"   Gusts: NA
Location:  38.9847°N, 94.3634°W
Report Text: KLXT 280353Z AUTO 14006KT 10SM CLR M01/M06 A3031 RMK AO2 SLP275 T10061056 TSNO
Loading
Personal Weather Stations






























Interactive Weather Map New forecast layout! Learn more

10-Day Weather Forecast

Advertisements
Track Severe Weather on mobile